sensor_id;sensor_type;location;lat;lon;timestamp;P1;durP1;ratioP1;P2;durP2;ratioP2
60239;SDS011;46102;39.012;-7.064;2023-01-29T00:00:35;2.97;;;1.95;;
60239;SDS011;46102;39.012;-7.064;2023-01-29T00:02:36;3.13;;;2.53;;
60239;SDS011;46102;39.012;-7.064;2023-01-29T00:04:37;2.90;;;2.60;;
60239;SDS011;46102;39.012;-7.064;2023-01-29T00:06:38;3.38;;;2.50;;
60239;SDS011;46102;39.012;-7.064;2023-01-29T00:08:39;6.95;;;2.78;;
60239;SDS011;46102;39.012;-7.064;2023-01-29T00:10:40;2.60;;;2.40;;
60239;SDS011;46102;39.012;-7.064;2023-01-29T00:12:40;2.03;;;1.90;;
60239;SDS011;46102;39.012;-7.064;2023-01-29T00:14:41;5.18;;;2.30;;
60239;SDS011;46102;39.012;-7.064;2023-01-29T00:16:42;2.30;;;2.10;;
60239;SDS011;46102;39.012;-7.064;2023-01-29T00:18:43;6.55;;;2.22;;
60239;SDS011;46102;39.012;-7.064;2023-01-29T00:20:44;2.67;;;2.20;;
60239;SDS011;46102;39.012;-7.064;2023-01-29T00:22:45;2.22;;;1.95;;
60239;SDS011;46102;39.012;-7.064;2023-01-29T00:24:46;2.78;;;2.20;;
60239;SDS011;46102;39.012;-7.064;2023-01-29T00:26:46;3.85;;;2.60;;
60239;SDS011;46102;39.012;-7.064;2023-01-29T00:28:49;2.45;;;1.95;;
60239;SDS011;46102;39.012;-7.064;2023-01-29T00:30:50;2.50;;;2.17;;
60239;SDS011;46102;39.012;-7.064;2023-01-29T00:32:50;2.28;;;1.77;;
60239;SDS011;46102;39.012;-7.064;2023-01-29T00:34:52;1.67;;;1.58;;
60239;SDS011;46102;39.012;-7.064;2023-01-29T00:36:53;3.78;;;2.05;;
60239;SDS011;46102;39.012;-7.064;2023-01-29T00:39:05;4.60;;;2.08;;
60239;SDS011;46102;39.012;-7.064;2023-01-29T00:43:33;1.48;;;1.38;;
60239;SDS011;46102;39.012;-7.064;2023-01-29T00:45:52;3.75;;;1.30;;
60239;SDS011;46102;39.012;-7.064;2023-01-29T00:47:53;1.42;;;1.17;;
60239;SDS011;46102;39.012;-7.064;2023-01-29T00:49:55;1.50;;;1.40;;
60239;SDS011;46102;39.012;-7.064;2023-01-29T00:51:56;2.47;;;1.65;;
60239;SDS011;46102;39.012;-7.064;2023-01-29T00:54:16;1.83;;;1.25;;
60239;SDS011;46102;39.012;-7.064;2023-01-29T00:56:17;1.92;;;1.33;;
60239;SDS011;46102;39.012;-7.064;2023-01-29T00:58:17;0.90;;;0.90;;
60239;SDS011;46102;39.012;-7.064;2023-01-29T01:00:27;1.13;;;0.70;;
60239;SDS011;46102;39.012;-7.064;2023-01-29T01:02:28;0.90;;;0.77;;
60239;SDS011;46102;39.012;-7.064;2023-01-29T01:04:47;0.98;;;0.85;;
60239;SDS011;46102;39.012;-7.064;2023-01-29T01:06:48;1.15;;;1.05;;
60239;SDS011;46102;39.012;-7.064;2023-01-29T01:08:49;1.45;;;0.88;;
60239;SDS011;46102;39.012;-7.064;2023-01-29T01:11:09;1.13;;;1.02;;
60239;SDS011;46102;39.012;-7.064;2023-01-29T01:13:10;1.35;;;0.77;;
60239;SDS011;46102;39.012;-7.064;2023-01-29T01:15:12;0.80;;;0.80;;
60239;SDS011;46102;39.012;-7.064;2023-01-29T01:17:14;0.70;;;0.70;;
60239;SDS011;46102;39.012;-7.064;2023-01-29T01:19:15;0.65;;;0.65;;
60239;SDS011;46102;39.012;-7.064;2023-01-29T01:21:16;1.60;;;0.90;;
60239;SDS011;46102;39.012;-7.064;2023-01-29T01:23:17;1.35;;;1.13;;
60239;SDS011;46102;39.012;-7.064;2023-01-29T01:25:19;1.20;;;1.02;;
60239;SDS011;46102;39.012;-7.064;2023-01-29T01:27:20;1.42;;;1.33;;
60239;SDS011;46102;39.012;-7.064;2023-01-29T01:29:21;1.27;;;1.17;;
60239;SDS011;46102;39.012;-7.064;2023-01-29T01:31:23;0.90;;;0.90;;
60239;SDS011;46102;39.012;-7.064;2023-01-29T01:33:24;0.98;;;0.98;;
60239;SDS011;46102;39.012;-7.064;2023-01-29T01:35:25;1.38;;;0.88;;
60239;SDS011;46102;39.012;-7.064;2023-01-29T01:37:26;0.82;;;0.80;;
60239;SDS011;46102;39.012;-7.064;2023-01-29T01:39:26;0.82;;;0.73;;
60239;SDS011;46102;39.012;-7.064;2023-01-29T01:41:28;1.27;;;0.77;;
60239;SDS011;46102;39.012;-7.064;2023-01-29T01:43:44;0.95;;;0.68;;
60239;SDS011;46102;39.012;-7.064;2023-01-29T01:45:48;0.68;;;0.63;;
60239;SDS011;46102;39.012;-7.064;2023-01-29T01:47:50;0.68;;;0.68;;
60239;SDS011;46102;39.012;-7.064;2023-01-29T01:49:57;1.65;;;0.50;;
60239;SDS011;46102;39.012;-7.064;2023-01-29T01:52:07;0.57;;;0.55;;
60239;SDS011;46102;39.012;-7.064;2023-01-29T01:54:11;0.60;;;0.60;;
60239;SDS011;46102;39.012;-7.064;2023-01-29T01:56:17;0.73;;;0.70;;
60239;SDS011;46102;39.012;-7.064;2023-01-29T01:58:24;2.45;;;0.95;;
60239;SDS011;46102;39.012;-7.064;2023-01-29T02:00:29;0.57;;;0.57;;
60239;SDS011;46102;39.012;-7.064;2023-01-29T02:02:30;0.60;;;0.60;;
60239;SDS011;46102;39.012;-7.064;2023-01-29T02:04:49;1.10;;;0.63;;
60239;SDS011;46102;39.012;-7.064;2023-01-29T02:07:09;1.10;;;0.60;;
60239;SDS011;46102;39.012;-7.064;2023-01-29T02:09:34;0.88;;;0.70;;
60239;SDS011;46102;39.012;-7.064;2023-01-29T02:11:39;0.57;;;0.57;;
60239;SDS011;46102;39.012;-7.064;2023-01-29T02:13:40;0.65;;;0.65;;
60239;SDS011;46102;39.012;-7.064;2023-01-29T02:15:42;0.70;;;0.70;;
60239;SDS011;46102;39.012;-7.064;2023-01-29T02:17:46;0.65;;;0.65;;
60239;SDS011;46102;39.012;-7.064;2023-01-29T02:22:17;0.45;;;0.45;;
60239;SDS011;46102;39.012;-7.064;2023-01-29T02:24:33;1.20;;;0.60;;
60239;SDS011;46102;39.012;-7.064;2023-01-29T02:27:02;0.80;;;0.80;;
60239;SDS011;46102;39.012;-7.064;2023-01-29T02:29:11;1.33;;;0.82;;
60239;SDS011;46102;39.012;-7.064;2023-01-29T02:31:40;0.90;;;0.80;;
60239;SDS011;46102;39.012;-7.064;2023-01-29T02:33:59;2.28;;;1.70;;
60239;SDS011;46102;39.012;-7.064;2023-01-29T02:38:39;3.08;;;0.70;;
60239;SDS011;46102;39.012;-7.064;2023-01-29T02:41:02;0.65;;;0.65;;
60239;SDS011;46102;39.012;-7.064;2023-01-29T02:47:58;1.23;;;1.00;;
60239;SDS011;46102;39.012;-7.064;2023-01-29T02:52:11;0.93;;;0.80;;
60239;SDS011;46102;39.012;-7.064;2023-01-29T02:54:23;1.60;;;0.80;;
60239;SDS011;46102;39.012;-7.064;2023-01-29T02:56:35;0.50;;;0.50;;
60239;SDS011;46102;39.012;-7.064;2023-01-29T03:00:47;0.50;;;0.50;;
60239;SDS011;46102;39.012;-7.064;2023-01-29T03:02:59;0.60;;;0.60;;
60239;SDS011;46102;39.012;-7.064;2023-01-29T03:05:07;1.45;;;0.68;;
60239;SDS011;46102;39.012;-7.064;2023-01-29T03:07:17;1.75;;;0.77;;
60239;SDS011;46102;39.012;-7.064;2023-01-29T03:10:05;3.08;;;0.68;;
60239;SDS011;46102;39.012;-7.064;2023-01-29T03:12:20;0.95;;;0.75;;
60239;SDS011;46102;39.012;-7.064;2023-01-29T03:14:35;0.82;;;0.60;;
60239;SDS011;46102;39.012;-7.064;2023-01-29T03:16:57;0.80;;;0.60;;
60239;SDS011;46102;39.012;-7.064;2023-01-29T03:19:07;2.22;;;0.50;;
60239;SDS011;46102;39.012;-7.064;2023-01-29T03:21:10;0.30;;;0.30;;
60239;SDS011;46102;39.012;-7.064;2023-01-29T03:23:36;4.32;;;0.73;;
60239;SDS011;46102;39.012;-7.064;2023-01-29T03:25:56;0.50;;;0.50;;
60239;SDS011;46102;39.012;-7.064;2023-01-29T03:28:17;0.55;;;0.52;;
60239;SDS011;46102;39.012;-7.064;2023-01-29T03:30:46;0.30;;;0.30;;
60239;SDS011;46102;39.012;-7.064;2023-01-29T03:33:20;1.10;;;0.70;;
60239;SDS011;46102;39.012;-7.064;2023-01-29T03:35:25;0.47;;;0.47;;
60239;SDS011;46102;39.012;-7.064;2023-01-29T03:37:38;1.40;;;0.73;;
60239;SDS011;46102;39.012;-7.064;2023-01-29T03:39:44;1.25;;;0.75;;
60239;SDS011;46102;39.012;-7.064;2023-01-29T03:44:12;0.55;;;0.47;;
60239;SDS011;46102;39.012;-7.064;2023-01-29T03:46:38;0.57;;;0.40;;
60239;SDS011;46102;39.012;-7.064;2023-01-29T03:48:54;1.67;;;0.60;;
60239;SDS011;46102;39.012;-7.064;2023-01-29T03:55:54;0.70;;;0.70;;
60239;SDS011;46102;39.012;-7.064;2023-01-29T04:00:27;0.32;;;0.32;;
60239;SDS011;46102;39.012;-7.064;2023-01-29T04:02:46;0.30;;;0.30;;
60239;SDS011;46102;39.012;-7.064;2023-01-29T04:04:51;0.40;;;0.40;;
60239;SDS011;46102;39.012;-7.064;2023-01-29T04:06:56;0.60;;;0.60;;
60239;SDS011;46102;39.012;-7.064;2023-01-29T04:09:08;0.52;;;0.47;;
60239;SDS011;46102;39.012;-7.064;2023-01-29T04:11:13;0.50;;;0.32;;
60239;SDS011;46102;39.012;-7.064;2023-01-29T04:13:18;0.47;;;0.40;;
60239;SDS011;46102;39.012;-7.064;2023-01-29T04:15:21;0.50;;;0.50;;
60239;SDS011;46102;39.012;-7.064;2023-01-29T04:17:32;1.83;;;0.88;;
60239;SDS011;46102;39.012;-7.064;2023-01-29T04:19:46;0.50;;;0.32;;
60239;SDS011;46102;39.012;-7.064;2023-01-29T04:21:48;0.40;;;0.40;;
60239;SDS011;46102;39.012;-7.064;2023-01-29T04:23:55;0.85;;;0.60;;
60239;SDS011;46102;39.012;-7.064;2023-01-29T04:28:32;0.57;;;0.43;;
60239;SDS011;46102;39.012;-7.064;2023-01-29T04:33:10;0.52;;;0.50;;
60239;SDS011;46102;39.012;-7.064;2023-01-29T04:35:16;0.35;;;0.35;;
60239;SDS011;46102;39.012;-7.064;2023-01-29T04:39:53;0.55;;;0.55;;
60239;SDS011;46102;39.012;-7.064;2023-01-29T04:42:22;0.65;;;0.50;;
60239;SDS011;46102;39.012;-7.064;2023-01-29T04:44:38;0.50;;;0.50;;
60239;SDS011;46102;39.012;-7.064;2023-01-29T04:51:38;0.60;;;0.50;;
60239;SDS011;46102;39.012;-7.064;2023-01-29T04:54:00;3.25;;;0.60;;
60239;SDS011;46102;39.012;-7.064;2023-01-29T04:56:10;0.40;;;0.40;;
60239;SDS011;46102;39.012;-7.064;2023-01-29T04:58:24;1.45;;;0.30;;
60239;SDS011;46102;39.012;-7.064;2023-01-29T05:00:36;0.47;;;0.47;;
60239;SDS011;46102;39.012;-7.064;2023-01-29T05:02:41;0.40;;;0.40;;
60239;SDS011;46102;39.012;-7.064;2023-01-29T05:04:44;2.90;;;0.50;;
60239;SDS011;46102;39.012;-7.064;2023-01-29T05:06:46;0.20;;;0.20;;
60239;SDS011;46102;39.012;-7.064;2023-01-29T05:08:49;0.30;;;0.30;;
60239;SDS011;46102;39.012;-7.064;2023-01-29T05:10:51;1.05;;;0.30;;
60239;SDS011;46102;39.012;-7.064;2023-01-29T05:13:00;0.20;;;0.20;;
60239;SDS011;46102;39.012;-7.064;2023-01-29T05:15:04;0.47;;;0.43;;
60239;SDS011;46102;39.012;-7.064;2023-01-29T05:17:13;5.30;;;0.45;;
60239;SDS011;46102;39.012;-7.064;2023-01-29T05:21:16;0.30;;;0.30;;
60239;SDS011;46102;39.012;-7.064;2023-01-29T05:23:19;0.30;;;0.30;;
60239;SDS011;46102;39.012;-7.064;2023-01-29T05:25:23;0.30;;;0.30;;
60239;SDS011;46102;39.012;-7.064;2023-01-29T05:29:51;1.45;;;0.50;;
60239;SDS011;46102;39.012;-7.064;2023-01-29T05:31:52;0.38;;;0.38;;
60239;SDS011;46102;39.012;-7.064;2023-01-29T05:33:53;1.55;;;0.30;;
60239;SDS011;46102;39.012;-7.064;2023-01-29T05:35:55;0.55;;;0.52;;
60239;SDS011;46102;39.012;-7.064;2023-01-29T05:37:58;0.40;;;0.40;;
60239;SDS011;46102;39.012;-7.064;2023-01-29T05:39:58;0.20;;;0.20;;
60239;SDS011;46102;39.012;-7.064;2023-01-29T05:41:59;0.30;;;0.30;;
60239;SDS011;46102;39.012;-7.064;2023-01-29T05:44:00;0.40;;;0.40;;
60239;SDS011;46102;39.012;-7.064;2023-01-29T05:46:01;0.40;;;0.30;;
60239;SDS011;46102;39.012;-7.064;2023-01-29T05:48:01;1.50;;;0.40;;
60239;SDS011;46102;39.012;-7.064;2023-01-29T05:50:02;0.75;;;0.55;;
60239;SDS011;46102;39.012;-7.064;2023-01-29T05:52:03;0.50;;;0.40;;
60239;SDS011;46102;39.012;-7.064;2023-01-29T05:54:04;0.40;;;0.40;;
60239;SDS011;46102;39.012;-7.064;2023-01-29T05:56:05;0.20;;;0.20;;
60239;SDS011;46102;39.012;-7.064;2023-01-29T05:58:06;0.60;;;0.57;;
60239;SDS011;46102;39.012;-7.064;2023-01-29T06:00:07;0.30;;;0.30;;
60239;SDS011;46102;39.012;-7.064;2023-01-29T06:02:12;0.30;;;0.30;;
60239;SDS011;46102;39.012;-7.064;2023-01-29T06:04:13;1.13;;;1.02;;
60239;SDS011;46102;39.012;-7.064;2023-01-29T06:06:13;0.75;;;0.40;;
60239;SDS011;46102;39.012;-7.064;2023-01-29T06:08:15;0.40;;;0.40;;
60239;SDS011;46102;39.012;-7.064;2023-01-29T06:10:17;0.45;;;0.45;;
60239;SDS011;46102;39.012;-7.064;2023-01-29T06:12:17;0.60;;;0.40;;
60239;SDS011;46102;39.012;-7.064;2023-01-29T06:14:18;0.40;;;0.40;;
60239;SDS011;46102;39.012;-7.064;2023-01-29T06:16:19;0.30;;;0.30;;
60239;SDS011;46102;39.012;-7.064;2023-01-29T06:18:20;0.47;;;0.47;;
60239;SDS011;46102;39.012;-7.064;2023-01-29T06:20:21;3.78;;;0.40;;
60239;SDS011;46102;39.012;-7.064;2023-01-29T06:22:22;0.40;;;0.38;;
60239;SDS011;46102;39.012;-7.064;2023-01-29T06:24:22;0.60;;;0.60;;
60239;SDS011;46102;39.012;-7.064;2023-01-29T06:26:23;0.30;;;0.30;;
60239;SDS011;46102;39.012;-7.064;2023-01-29T06:28:24;0.47;;;0.47;;
60239;SDS011;46102;39.012;-7.064;2023-01-29T06:30:25;0.30;;;0.30;;
60239;SDS011;46102;39.012;-7.064;2023-01-29T06:32:27;0.45;;;0.40;;
60239;SDS011;46102;39.012;-7.064;2023-01-29T06:34:28;0.40;;;0.40;;
60239;SDS011;46102;39.012;-7.064;2023-01-29T06:36:29;0.30;;;0.30;;
60239;SDS011;46102;39.012;-7.064;2023-01-29T06:38:30;0.43;;;0.43;;
60239;SDS011;46102;39.012;-7.064;2023-01-29T06:40:31;0.30;;;0.30;;
60239;SDS011;46102;39.012;-7.064;2023-01-29T06:42:33;0.40;;;0.40;;
60239;SDS011;46102;39.012;-7.064;2023-01-29T06:44:34;0.75;;;0.38;;
60239;SDS011;46102;39.012;-7.064;2023-01-29T06:46:35;0.40;;;0.40;;
60239;SDS011;46102;39.012;-7.064;2023-01-29T06:48:36;0.43;;;0.43;;
60239;SDS011;46102;39.012;-7.064;2023-01-29T06:50:37;0.30;;;0.30;;
60239;SDS011;46102;39.012;-7.064;2023-01-29T06:52:38;0.52;;;0.40;;
60239;SDS011;46102;39.012;-7.064;2023-01-29T06:54:38;0.50;;;0.50;;
60239;SDS011;46102;39.012;-7.064;2023-01-29T06:56:39;0.52;;;0.47;;
60239;SDS011;46102;39.012;-7.064;2023-01-29T06:58:40;0.40;;;0.40;;
60239;SDS011;46102;39.012;-7.064;2023-01-29T07:00:42;0.50;;;0.50;;
60239;SDS011;46102;39.012;-7.064;2023-01-29T07:02:43;0.40;;;0.40;;
60239;SDS011;46102;39.012;-7.064;2023-01-29T07:04:44;1.02;;;0.32;;
60239;SDS011;46102;39.012;-7.064;2023-01-29T07:06:45;0.25;;;0.20;;
60239;SDS011;46102;39.012;-7.064;2023-01-29T07:08:45;0.30;;;0.30;;
60239;SDS011;46102;39.012;-7.064;2023-01-29T07:10:46;1.50;;;0.50;;
60239;SDS011;46102;39.012;-7.064;2023-01-29T07:12:47;1.33;;;0.40;;
60239;SDS011;46102;39.012;-7.064;2023-01-29T07:14:48;0.22;;;0.22;;
60239;SDS011;46102;39.012;-7.064;2023-01-29T07:16:48;0.20;;;0.20;;
60239;SDS011;46102;39.012;-7.064;2023-01-29T07:18:49;0.35;;;0.35;;
60239;SDS011;46102;39.012;-7.064;2023-01-29T07:20:50;0.22;;;0.22;;
60239;SDS011;46102;39.012;-7.064;2023-01-29T07:22:51;1.85;;;0.25;;
60239;SDS011;46102;39.012;-7.064;2023-01-29T07:24:52;0.20;;;0.20;;
60239;SDS011;46102;39.012;-7.064;2023-01-29T07:26:53;1.27;;;0.40;;
60239;SDS011;46102;39.012;-7.064;2023-01-29T07:28:53;0.40;;;0.40;;
60239;SDS011;46102;39.012;-7.064;2023-01-29T07:30:55;0.45;;;0.45;;
60239;SDS011;46102;39.012;-7.064;2023-01-29T07:33:01;0.40;;;0.40;;
60239;SDS011;46102;39.012;-7.064;2023-01-29T07:35:03;2.15;;;0.50;;
60239;SDS011;46102;39.012;-7.064;2023-01-29T07:37:04;0.40;;;0.40;;
60239;SDS011;46102;39.012;-7.064;2023-01-29T07:39:05;0.63;;;0.50;;
60239;SDS011;46102;39.012;-7.064;2023-01-29T07:41:06;0.52;;;0.40;;
60239;SDS011;46102;39.012;-7.064;2023-01-29T07:43:08;0.28;;;0.28;;
60239;SDS011;46102;39.012;-7.064;2023-01-29T07:45:11;0.53;;;0.50;;
60239;SDS011;46102;39.012;-7.064;2023-01-29T07:47:12;0.40;;;0.40;;
60239;SDS011;46102;39.012;-7.064;2023-01-29T07:49:13;0.30;;;0.30;;
60239;SDS011;46102;39.012;-7.064;2023-01-29T07:51:14;2.47;;;0.50;;
60239;SDS011;46102;39.012;-7.064;2023-01-29T07:53:17;0.30;;;0.30;;
60239;SDS011;46102;39.012;-7.064;2023-01-29T07:55:18;0.57;;;0.30;;
60239;SDS011;46102;39.012;-7.064;2023-01-29T07:57:18;0.70;;;0.70;;
60239;SDS011;46102;39.012;-7.064;2023-01-29T07:59:19;1.35;;;0.85;;
60239;SDS011;46102;39.012;-7.064;2023-01-29T08:01:20;7.10;;;3.47;;
60239;SDS011;46102;39.012;-7.064;2023-01-29T08:03:21;6.50;;;4.25;;
60239;SDS011;46102;39.012;-7.064;2023-01-29T08:05:21;3.22;;;1.90;;
60239;SDS011;46102;39.012;-7.064;2023-01-29T08:07:22;1.55;;;1.45;;
60239;SDS011;46102;39.012;-7.064;2023-01-29T08:09:23;1.20;;;1.10;;
60239;SDS011;46102;39.012;-7.064;2023-01-29T08:11:24;1.70;;;0.80;;
60239;SDS011;46102;39.012;-7.064;2023-01-29T08:13:24;1.25;;;1.17;;
60239;SDS011;46102;39.012;-7.064;2023-01-29T08:15:25;0.70;;;0.70;;
60239;SDS011;46102;39.012;-7.064;2023-01-29T08:17:27;0.50;;;0.50;;
60239;SDS011;46102;39.012;-7.064;2023-01-29T08:19:28;0.47;;;0.47;;
60239;SDS011;46102;39.012;-7.064;2023-01-29T08:21:29;1.75;;;0.60;;
60239;SDS011;46102;39.012;-7.064;2023-01-29T08:23:29;0.70;;;0.70;;
60239;SDS011;46102;39.012;-7.064;2023-01-29T08:25:30;0.60;;;0.60;;
60239;SDS011;46102;39.012;-7.064;2023-01-29T08:27:32;0.60;;;0.60;;
60239;SDS011;46102;39.012;-7.064;2023-01-29T08:29:33;0.77;;;0.77;;
60239;SDS011;46102;39.012;-7.064;2023-01-29T08:31:33;0.70;;;0.70;;
60239;SDS011;46102;39.012;-7.064;2023-01-29T08:33:34;1.02;;;0.93;;
60239;SDS011;46102;39.012;-7.064;2023-01-29T08:35:35;1.10;;;1.10;;
60239;SDS011;46102;39.012;-7.064;2023-01-29T08:37:36;1.08;;;0.98;;
60239;SDS011;46102;39.012;-7.064;2023-01-29T08:39:37;1.25;;;1.15;;
60239;SDS011;46102;39.012;-7.064;2023-01-29T08:41:38;1.38;;;1.10;;
60239;SDS011;46102;39.012;-7.064;2023-01-29T08:43:39;0.90;;;0.90;;
60239;SDS011;46102;39.012;-7.064;2023-01-29T08:45:40;1.58;;;1.30;;
60239;SDS011;46102;39.012;-7.064;2023-01-29T08:47:45;1.77;;;1.67;;
60239;SDS011;46102;39.012;-7.064;2023-01-29T08:49:47;2.20;;;2.00;;
60239;SDS011;46102;39.012;-7.064;2023-01-29T08:51:48;1.77;;;1.35;;
60239;SDS011;46102;39.012;-7.064;2023-01-29T08:53:50;1.10;;;1.00;;
60239;SDS011;46102;39.012;-7.064;2023-01-29T08:55:52;1.25;;;1.13;;
60239;SDS011;46102;39.012;-7.064;2023-01-29T08:57:53;1.88;;;1.40;;
60239;SDS011;46102;39.012;-7.064;2023-01-29T08:59:56;2.85;;;2.65;;
60239;SDS011;46102;39.012;-7.064;2023-01-29T09:01:57;5.13;;;4.65;;
60239;SDS011;46102;39.012;-7.064;2023-01-29T09:03:58;4.63;;;4.30;;
60239;SDS011;46102;39.012;-7.064;2023-01-29T09:05:58;4.70;;;3.85;;
60239;SDS011;46102;39.012;-7.064;2023-01-29T09:07:59;1.60;;;1.50;;
60239;SDS011;46102;39.012;-7.064;2023-01-29T09:10:00;1.38;;;1.27;;
60239;SDS011;46102;39.012;-7.064;2023-01-29T09:12:01;1.40;;;1.30;;
60239;SDS011;46102;39.012;-7.064;2023-01-29T09:14:02;2.42;;;1.77;;
60239;SDS011;46102;39.012;-7.064;2023-01-29T09:16:03;2.08;;;1.52;;
60239;SDS011;46102;39.012;-7.064;2023-01-29T09:18:04;2.28;;;2.10;;
60239;SDS011;46102;39.012;-7.064;2023-01-29T09:20:05;3.15;;;1.67;;
60239;SDS011;46102;39.012;-7.064;2023-01-29T09:22:07;1.45;;;1.17;;
60239;SDS011;46102;39.012;-7.064;2023-01-29T09:24:07;1.17;;;1.08;;
60239;SDS011;46102;39.012;-7.064;2023-01-29T09:26:08;1.00;;;0.93;;
60239;SDS011;46102;39.012;-7.064;2023-01-29T09:28:09;1.77;;;1.08;;
60239;SDS011;46102;39.012;-7.064;2023-01-29T09:30:10;0.98;;;0.82;;
60239;SDS011;46102;39.012;-7.064;2023-01-29T09:32:11;0.60;;;0.60;;
60239;SDS011;46102;39.012;-7.064;2023-01-29T09:34:12;1.23;;;1.13;;
60239;SDS011;46102;39.012;-7.064;2023-01-29T09:36:13;0.50;;;0.50;;
60239;SDS011;46102;39.012;-7.064;2023-01-29T09:38:14;1.38;;;1.05;;
60239;SDS011;46102;39.012;-7.064;2023-01-29T09:40:18;3.10;;;1.80;;
60239;SDS011;46102;39.012;-7.064;2023-01-29T09:42:32;2.50;;;1.45;;
60239;SDS011;46102;39.012;-7.064;2023-01-29T09:44:53;1.38;;;1.27;;
60239;SDS011;46102;39.012;-7.064;2023-01-29T09:47:05;1.92;;;1.73;;
60239;SDS011;46102;39.012;-7.064;2023-01-29T09:51:25;1.48;;;1.25;;
60239;SDS011;46102;39.012;-7.064;2023-01-29T09:53:45;5.00;;;1.30;;
60239;SDS011;46102;39.012;-7.064;2023-01-29T09:55:57;1.15;;;1.10;;
60239;SDS011;46102;39.012;-7.064;2023-01-29T09:58:13;1.70;;;1.60;;
60239;SDS011;46102;39.012;-7.064;2023-01-29T10:00:23;1.80;;;1.70;;
60239;SDS011;46102;39.012;-7.064;2023-01-29T10:11:44;2.13;;;1.40;;
60239;SDS011;46102;39.012;-7.064;2023-01-29T10:14:10;1.75;;;0.80;;
60239;SDS011;46102;39.012;-7.064;2023-01-29T10:16:20;2.50;;;1.98;;
60239;SDS011;46102;39.012;-7.064;2023-01-29T10:18:30;0.85;;;0.85;;
60239;SDS011;46102;39.012;-7.064;2023-01-29T10:20:48;1.58;;;1.17;;
60239;SDS011;46102;39.012;-7.064;2023-01-29T10:23:11;0.70;;;0.70;;
60239;SDS011;46102;39.012;-7.064;2023-01-29T10:25:20;0.85;;;0.85;;
60239;SDS011;46102;39.012;-7.064;2023-01-29T10:27:22;2.22;;;1.10;;
60239;SDS011;46102;39.012;-7.064;2023-01-29T10:29:30;0.52;;;0.52;;
60239;SDS011;46102;39.012;-7.064;2023-01-29T10:31:36;0.75;;;0.75;;
60239;SDS011;46102;39.012;-7.064;2023-01-29T10:33:40;0.73;;;0.73;;
60239;SDS011;46102;39.012;-7.064;2023-01-29T10:35:43;0.82;;;0.82;;
60239;SDS011;46102;39.012;-7.064;2023-01-29T10:37:51;1.95;;;0.90;;
60239;SDS011;46102;39.012;-7.064;2023-01-29T10:51:03;0.75;;;0.70;;
60239;SDS011;46102;39.012;-7.064;2023-01-29T10:53:26;1.42;;;0.90;;
60239;SDS011;46102;39.012;-7.064;2023-01-29T11:00:34;0.77;;;0.77;;
60239;SDS011;46102;39.012;-7.064;2023-01-29T11:02:43;2.38;;;1.25;;
60239;SDS011;46102;39.012;-7.064;2023-01-29T11:04:45;1.13;;;0.70;;
60239;SDS011;46102;39.012;-7.064;2023-01-29T11:06:46;0.80;;;0.80;;
60239;SDS011;46102;39.012;-7.064;2023-01-29T11:08:51;1.45;;;1.02;;
60239;SDS011;46102;39.012;-7.064;2023-01-29T11:11:01;0.57;;;0.50;;
60239;SDS011;46102;39.012;-7.064;2023-01-29T11:13:08;1.33;;;1.23;;
60239;SDS011;46102;39.012;-7.064;2023-01-29T11:15:30;1.05;;;0.88;;
60239;SDS011;46102;39.012;-7.064;2023-01-29T11:17:34;1.70;;;1.20;;
60239;SDS011;46102;39.012;-7.064;2023-01-29T11:19:38;8.30;;;2.70;;
60239;SDS011;46102;39.012;-7.064;2023-01-29T11:21:51;0.90;;;0.85;;
60239;SDS011;46102;39.012;-7.064;2023-01-29T11:24:09;0.98;;;0.98;;
60239;SDS011;46102;39.012;-7.064;2023-01-29T11:26:18;4.05;;;2.50;;
60239;SDS011;46102;39.012;-7.064;2023-01-29T11:28:34;8.32;;;3.55;;
60239;SDS011;46102;39.012;-7.064;2023-01-29T11:30:37;1.63;;;1.52;;
60239;SDS011;46102;39.012;-7.064;2023-01-29T11:32:39;1.30;;;1.20;;
60239;SDS011;46102;39.012;-7.064;2023-01-29T11:37:03;1.67;;;1.20;;
60239;SDS011;46102;39.012;-7.064;2023-01-29T11:39:18;1.25;;;1.15;;
60239;SDS011;46102;39.012;-7.064;2023-01-29T11:41:23;4.75;;;1.48;;
60239;SDS011;46102;39.012;-7.064;2023-01-29T11:43:31;1.63;;;0.82;;
60239;SDS011;46102;39.012;-7.064;2023-01-29T11:45:32;0.63;;;0.63;;
60239;SDS011;46102;39.012;-7.064;2023-01-29T11:47:34;0.98;;;0.70;;
60239;SDS011;46102;39.012;-7.064;2023-01-29T11:49:35;0.43;;;0.43;;
60239;SDS011;46102;39.012;-7.064;2023-01-29T11:51:37;0.60;;;0.60;;
60239;SDS011;46102;39.012;-7.064;2023-01-29T11:53:40;0.70;;;0.70;;
60239;SDS011;46102;39.012;-7.064;2023-01-29T11:55:44;0.95;;;0.75;;
60239;SDS011;46102;39.012;-7.064;2023-01-29T11:57:48;0.77;;;0.77;;
60239;SDS011;46102;39.012;-7.064;2023-01-29T11:59:59;3.20;;;1.00;;
60239;SDS011;46102;39.012;-7.064;2023-01-29T12:04:25;0.70;;;0.70;;
60239;SDS011;46102;39.012;-7.064;2023-01-29T12:06:31;0.98;;;0.50;;
60239;SDS011;46102;39.012;-7.064;2023-01-29T12:08:36;0.65;;;0.65;;
60239;SDS011;46102;39.012;-7.064;2023-01-29T12:10:39;0.60;;;0.60;;
60239;SDS011;46102;39.012;-7.064;2023-01-29T12:12:41;1.33;;;0.50;;
60239;SDS011;46102;39.012;-7.064;2023-01-29T12:14:42;0.77;;;0.75;;
60239;SDS011;46102;39.012;-7.064;2023-01-29T12:16:51;0.65;;;0.65;;
60239;SDS011;46102;39.012;-7.064;2023-01-29T12:19:11;2.00;;;0.83;;
60239;SDS011;46102;39.012;-7.064;2023-01-29T12:21:32;1.77;;;1.45;;
60239;SDS011;46102;39.012;-7.064;2023-01-29T12:23:50;0.73;;;0.73;;
60239;SDS011;46102;39.012;-7.064;2023-01-29T12:26:08;0.90;;;0.90;;
60239;SDS011;46102;39.012;-7.064;2023-01-29T12:28:18;0.70;;;0.70;;
60239;SDS011;46102;39.012;-7.064;2023-01-29T12:30:35;0.75;;;0.75;;
60239;SDS011;46102;39.012;-7.064;2023-01-29T12:32:48;1.98;;;0.63;;
60239;SDS011;46102;39.012;-7.064;2023-01-29T12:37:35;0.70;;;0.70;;
60239;SDS011;46102;39.012;-7.064;2023-01-29T12:39:44;4.00;;;0.85;;
60239;SDS011;46102;39.012;-7.064;2023-01-29T12:41:47;1.55;;;0.80;;
60239;SDS011;46102;39.012;-7.064;2023-01-29T12:43:56;1.50;;;0.80;;
60239;SDS011;46102;39.012;-7.064;2023-01-29T12:46:03;1.45;;;1.35;;
60239;SDS011;46102;39.012;-7.064;2023-01-29T12:48:11;1.30;;;1.20;;
60239;SDS011;46102;39.012;-7.064;2023-01-29T12:50:17;1.95;;;1.75;;
60239;SDS011;46102;39.012;-7.064;2023-01-29T12:52:22;1.05;;;1.05;;
60239;SDS011;46102;39.012;-7.064;2023-01-29T12:54:37;1.17;;;1.08;;
60239;SDS011;46102;39.012;-7.064;2023-01-29T12:56:45;1.00;;;1.00;;
60239;SDS011;46102;39.012;-7.064;2023-01-29T12:58:49;1.42;;;1.30;;
60239;SDS011;46102;39.012;-7.064;2023-01-29T13:00:53;1.83;;;1.73;;
60239;SDS011;46102;39.012;-7.064;2023-01-29T13:07:37;3.05;;;2.85;;
60239;SDS011;46102;39.012;-7.064;2023-01-29T13:09:47;2.05;;;1.85;;
60239;SDS011;46102;39.012;-7.064;2023-01-29T13:12:04;2.38;;;2.17;;
60239;SDS011;46102;39.012;-7.064;2023-01-29T13:16:12;1.00;;;0.90;;
60239;SDS011;46102;39.012;-7.064;2023-01-29T13:22:25;1.27;;;1.17;;
60239;SDS011;46102;39.012;-7.064;2023-01-29T13:24:32;2.78;;;1.30;;
60239;SDS011;46102;39.012;-7.064;2023-01-29T13:26:39;2.20;;;2.00;;
60239;SDS011;46102;39.012;-7.064;2023-01-29T13:28:40;1.45;;;1.35;;
60239;SDS011;46102;39.012;-7.064;2023-01-29T13:30:44;0.80;;;0.80;;
60239;SDS011;46102;39.012;-7.064;2023-01-29T13:32:49;1.85;;;1.08;;
60239;SDS011;46102;39.012;-7.064;2023-01-29T13:34:53;1.08;;;0.90;;
60239;SDS011;46102;39.012;-7.064;2023-01-29T13:36:58;1.33;;;0.98;;
60239;SDS011;46102;39.012;-7.064;2023-01-29T13:39:03;0.95;;;0.88;;
60239;SDS011;46102;39.012;-7.064;2023-01-29T13:41:06;1.30;;;0.80;;
60239;SDS011;46102;39.012;-7.064;2023-01-29T13:43:11;2.50;;;1.20;;
60239;SDS011;46102;39.012;-7.064;2023-01-29T13:45:24;1.42;;;1.33;;
60239;SDS011;46102;39.012;-7.064;2023-01-29T13:47:33;1.58;;;1.02;;
60239;SDS011;46102;39.012;-7.064;2023-01-29T13:49:38;1.60;;;1.38;;
60239;SDS011;46102;39.012;-7.064;2023-01-29T13:51:44;1.75;;;1.65;;
60239;SDS011;46102;39.012;-7.064;2023-01-29T13:53:55;1.15;;;1.15;;